createdAt,value
2023-01-13T00:00:45.862Z,2.53
2023-01-13T00:03:15.814Z,4.50
2023-01-13T00:05:43.973Z,1.73
2023-01-13T00:08:18.128Z,3.37
2023-01-13T00:10:49.225Z,1.43
2023-01-13T00:13:28.093Z,4.63
2023-01-13T00:16:05.294Z,1.67
2023-01-13T00:18:44.336Z,1.97
2023-01-13T00:21:22.385Z,3.50
2023-01-13T00:23:52.460Z,1.73
2023-01-13T00:26:28.454Z,5.43
2023-01-13T00:29:09.066Z,1.93
2023-01-13T00:31:38.916Z,1.53
2023-01-13T00:34:09.090Z,1.40
2023-01-13T00:36:37.201Z,2.50
2023-01-13T00:39:15.735Z,2.20
2023-01-13T00:42:01.192Z,3.60
2023-01-13T00:44:35.473Z,2.40
2023-01-13T00:47:16.264Z,4.30
2023-01-13T00:49:45.171Z,3.23
2023-01-13T00:52:18.964Z,2.20
2023-01-13T00:54:47.275Z,4.83
2023-01-13T00:57:18.857Z,4.83
2023-01-13T00:59:49.531Z,5.90
2023-01-13T01:02:21.877Z,3.33
2023-01-13T01:04:50.374Z,4.93
2023-01-13T01:07:26.092Z,4.43
2023-01-13T01:10:02.302Z,6.63
2023-01-13T01:12:48.131Z,7.23
2023-01-13T01:15:16.684Z,6.87
2023-01-13T01:17:54.885Z,5.13
2023-01-13T01:20:47.619Z,6.60
2023-01-13T01:23:18.614Z,7.33
2023-01-13T01:26:18.037Z,5.07
2023-01-13T01:28:53.006Z,7.03
2023-01-13T01:31:28.955Z,8.20
2023-01-13T01:33:59.300Z,7.07
2023-01-13T01:36:37.026Z,5.20
2023-01-13T01:42:03.085Z,7.17
2023-01-13T01:45:03.030Z,5.23
2023-01-13T01:47:38.501Z,7.47
2023-01-13T01:50:08.897Z,13.97
2023-01-13T01:52:50.570Z,12.13
2023-01-13T01:55:23.994Z,11.13
2023-01-13T01:58:03.687Z,9.83
2023-01-13T02:00:34.688Z,7.07
2023-01-13T02:03:07.214Z,15.47
2023-01-13T02:05:36.701Z,10.53
2023-01-13T02:08:08.143Z,9.07
2023-01-13T02:10:37.275Z,15.80
2023-01-13T02:13:10.716Z,12.57
2023-01-13T02:15:47.719Z,11.63
2023-01-13T02:18:54.793Z,11.13
2023-01-13T02:22:12.204Z,17.60
2023-01-13T02:25:05.624Z,9.33
2023-01-13T02:28:21.129Z,9.60
2023-01-13T02:31:22.317Z,8.57
2023-01-13T02:34:05.220Z,10.77
2023-01-13T02:36:40.041Z,24.53
2023-01-13T02:39:17.806Z,13.80
2023-01-13T02:42:08.241Z,9.47
2023-01-13T02:44:45.292Z,11.20
2023-01-13T02:47:27.790Z,11.80
2023-01-13T02:50:08.053Z,14.90
2023-01-13T02:52:43.030Z,8.83
2023-01-13T02:55:15.474Z,7.67
2023-01-13T02:57:51.154Z,12.73
2023-01-13T03:00:33.094Z,19.27
2023-01-13T03:03:12.543Z,16.27
2023-01-13T03:05:44.431Z,11.07
2023-01-13T03:08:31.794Z,12.90
2023-01-13T03:11:14.490Z,12.80
2023-01-13T03:14:12.367Z,12.03
2023-01-13T03:17:04.845Z,19.43
2023-01-13T03:19:43.013Z,15.73
2023-01-13T03:22:22.844Z,13.33
2023-01-13T03:24:56.307Z,10.30
2023-01-13T03:30:21.442Z,15.67
2023-01-13T03:33:00.556Z,14.33
2023-01-13T03:38:30.537Z,16.30
2023-01-13T03:41:09.853Z,19.10
2023-01-13T03:44:07.338Z,16.47
2023-01-13T03:46:45.431Z,12.50
2023-01-13T03:49:17.065Z,27.87
2023-01-13T03:51:53.991Z,12.33
2023-01-13T03:54:34.871Z,17.93
2023-01-13T03:57:13.450Z,18.77
2023-01-13T03:59:55.203Z,8.97
2023-01-13T04:02:39.690Z,15.77
2023-01-13T04:05:24.915Z,19.70
2023-01-13T04:08:05.298Z,17.30
2023-01-13T04:10:45.787Z,13.80
2023-01-13T04:13:22.201Z,13.03
2023-01-13T04:15:57.651Z,10.63
2023-01-13T04:18:29.007Z,16.50
2023-01-13T04:21:02.109Z,13.63
2023-01-13T04:23:32.860Z,13.33
2023-01-13T04:26:09.119Z,11.50
2023-01-13T04:28:44.994Z,17.00
2023-01-13T04:31:13.326Z,17.03
2023-01-13T04:33:47.200Z,14.67
2023-01-13T04:36:16.420Z,12.30
2023-01-13T04:38:48.704Z,11.73
2023-01-13T04:41:16.839Z,13.97
2023-01-13T04:43:51.321Z,21.67
2023-01-13T04:46:19.503Z,18.80
2023-01-13T04:49:00.627Z,18.13
2023-01-13T04:51:34.843Z,15.67
2023-01-13T04:54:04.619Z,20.37
2023-01-13T04:56:35.020Z,19.97
2023-01-13T04:59:03.147Z,12.23
2023-01-13T05:01:46.629Z,18.73
2023-01-13T05:04:17.128Z,21.63
2023-01-13T05:06:45.444Z,16.93
2023-01-13T05:09:30.304Z,27.83
2023-01-13T05:12:22.306Z,22.30
2023-01-13T05:15:07.796Z,23.07
2023-01-13T05:17:47.630Z,16.07
2023-01-13T05:20:26.376Z,14.57
2023-01-13T05:23:12.133Z,18.77
2023-01-13T05:25:50.313Z,17.17
2023-01-13T05:28:18.711Z,17.90
2023-01-13T05:30:51.153Z,20.40
2023-01-13T05:33:28.923Z,18.87
2023-01-13T05:36:00.542Z,17.97
2023-01-13T05:38:34.833Z,14.23
2023-01-13T05:41:21.670Z,25.00
2023-01-13T05:43:56.207Z,12.77
2023-01-13T05:46:34.311Z,19.60
2023-01-13T05:49:02.491Z,14.43
2023-01-13T05:51:41.181Z,17.30
2023-01-13T05:54:09.303Z,16.50
2023-01-13T05:56:47.928Z,19.87
2023-01-13T05:59:22.519Z,20.00
2023-01-13T06:01:50.697Z,14.00
2023-01-13T06:04:27.996Z,11.47
2023-01-13T06:07:04.551Z,20.20
2023-01-13T06:09:33.160Z,21.10
2023-01-13T06:12:05.772Z,13.40
2023-01-13T06:14:50.293Z,16.13
2023-01-13T06:17:18.627Z,14.63
2023-01-13T06:19:49.641Z,14.30
2023-01-13T06:22:30.687Z,13.23
2023-01-13T06:24:59.800Z,14.37
2023-01-13T06:27:52.071Z,10.30
2023-01-13T06:30:20.832Z,17.97
2023-01-13T06:32:59.909Z,20.87
2023-01-13T06:35:42.073Z,11.80
2023-01-13T06:38:21.402Z,20.27
2023-01-13T06:40:59.158Z,19.43
2023-01-13T06:43:41.526Z,14.47
2023-01-13T06:46:10.111Z,14.93
2023-01-13T06:48:45.257Z,18.43
2023-01-13T06:51:20.915Z,17.33
2023-01-13T06:53:49.549Z,20.70
2023-01-13T06:56:23.110Z,14.17
2023-01-13T06:58:52.642Z,21.40
2023-01-13T07:01:32.398Z,17.10
2023-01-13T07:04:09.306Z,14.30
2023-01-13T07:06:37.458Z,12.13
2023-01-13T07:09:13.326Z,17.83
2023-01-13T07:24:20.633Z,11.13
2023-01-13T07:26:59.288Z,13.53
2023-01-13T07:29:27.775Z,15.53
2023-01-13T07:31:58.224Z,7.63
2023-01-13T07:34:29.030Z,11.07
2023-01-13T07:37:08.354Z,12.80
2023-01-13T07:39:50.318Z,13.00
2023-01-13T07:44:54.284Z,6.90
2023-01-13T07:47:31.920Z,13.53
2023-01-13T07:50:32.824Z,17.40
2023-01-13T07:53:10.983Z,14.93
2023-01-13T08:46:16.075Z,6.90
2023-01-13T08:48:50.253Z,9.33
2023-01-13T08:51:41.266Z,5.63
2023-01-13T08:54:18.931Z,6.20
2023-01-13T08:57:20.972Z,4.90
2023-01-13T09:00:17.315Z,6.37
2023-01-13T09:03:04.310Z,12.20
2023-01-13T09:05:40.692Z,8.90
2023-01-13T09:08:21.400Z,5.73
2023-01-13T09:10:54.784Z,4.43
2023-01-13T09:13:29.690Z,9.37
2023-01-13T09:16:05.179Z,10.80
2023-01-13T09:18:50.463Z,8.97
2023-01-13T09:21:50.538Z,6.07
2023-01-13T09:24:50.232Z,9.00
2023-01-13T09:27:53.519Z,6.20
2023-01-13T09:31:08.457Z,8.37
2023-01-13T09:34:08.330Z,9.97
2023-01-13T09:36:59.542Z,11.33
2023-01-13T09:39:31.943Z,7.90
2023-01-13T09:42:30.287Z,10.60
2023-01-13T09:45:15.858Z,4.33
2023-01-13T09:53:42.242Z,12.47
2023-01-13T09:56:22.733Z,8.67
2023-01-13T09:59:05.895Z,10.33
2023-01-13T10:01:59.596Z,10.67
2023-01-13T10:04:28.230Z,11.27
2023-01-13T10:07:06.901Z,10.30
2023-01-13T10:09:49.907Z,12.43
2023-01-13T10:12:45.184Z,10.47
2023-01-13T10:15:24.764Z,8.70
2023-01-13T10:18:11.159Z,6.70
2023-01-13T10:21:09.399Z,9.07
2023-01-13T10:23:52.339Z,8.33
2023-01-13T10:34:57.427Z,8.03
2023-01-13T10:37:56.900Z,7.27
2023-01-13T10:40:44.383Z,10.07
2023-01-13T10:46:24.317Z,10.30
2023-01-13T10:49:06.860Z,13.50
2023-01-13T10:51:48.350Z,11.00
2023-01-13T10:54:50.949Z,7.63
2023-01-13T10:58:09.316Z,7.37
2023-01-13T11:01:34.051Z,8.00
2023-01-13T11:04:34.051Z,10.00
2023-01-13T11:07:53.628Z,10.97
2023-01-13T11:10:50.205Z,12.83
2023-01-13T11:16:57.188Z,7.17
2023-01-13T11:19:52.591Z,8.73
2023-01-13T11:38:08.539Z,8.20
2023-01-13T11:41:02.292Z,6.50
2023-01-13T11:45:06.106Z,7.53
2023-01-13T11:49:52.343Z,6.43
2023-01-13T11:53:13.944Z,12.87
2023-01-13T11:56:14.185Z,7.97
2023-01-13T11:59:30.654Z,8.73
2023-01-13T12:09:37.281Z,5.13
2023-01-13T12:13:14.098Z,10.13
2023-01-13T12:16:33.014Z,6.37
2023-01-13T12:23:02.758Z,11.53
2023-01-13T12:25:54.600Z,6.40
2023-01-13T12:31:21.002Z,11.50
2023-01-13T12:34:11.253Z,7.30
2023-01-13T12:37:06.428Z,7.87
2023-01-13T12:39:51.107Z,9.67
2023-01-13T12:42:52.011Z,5.47
2023-01-13T12:45:35.331Z,7.37
2023-01-13T12:48:36.082Z,8.83
2023-01-13T12:51:35.931Z,8.53
2023-01-13T12:55:07.048Z,5.17
2023-01-13T13:01:14.694Z,5.77
2023-01-13T13:04:12.652Z,6.60
2023-01-13T13:06:55.036Z,3.93
2023-01-13T13:09:44.199Z,5.90
2023-01-13T13:13:14.506Z,6.57
2023-01-13T13:16:00.686Z,5.10
2023-01-13T13:18:59.577Z,6.83
2023-01-13T13:22:25.963Z,6.57
2023-01-13T13:25:28.898Z,7.67
2023-01-13T13:29:10.755Z,5.33
2023-01-13T13:32:09.961Z,8.53
2023-01-13T13:34:55.545Z,7.67
2023-01-13T13:40:46.769Z,8.57
2023-01-13T13:56:02.994Z,4.47
2023-01-13T13:59:01.579Z,7.33
2023-01-13T14:14:30.100Z,2.20
2023-01-13T14:17:26.382Z,7.20
2023-01-13T14:20:06.065Z,7.40
2023-01-13T14:22:51.539Z,8.27
2023-01-13T14:25:51.095Z,13.43
2023-01-13T14:34:32.031Z,10.23
2023-01-13T14:36:59.806Z,9.60
2023-01-13T14:39:39.310Z,5.87
2023-01-13T14:42:13.736Z,10.20
2023-01-13T14:45:02.343Z,5.60
2023-01-13T14:48:01.745Z,7.53
2023-01-13T14:50:38.851Z,8.00
2023-01-13T14:53:43.163Z,13.53
2023-01-13T14:57:00.329Z,8.13
2023-01-13T14:59:47.327Z,4.53
2023-01-13T15:08:42.216Z,7.60
2023-01-13T15:12:28.377Z,7.50
2023-01-13T15:15:29.771Z,4.67
2023-01-13T15:18:17.618Z,7.40
2023-01-13T16:22:29.465Z,5.47
2023-01-13T16:24:57.729Z,6.23
2023-01-13T16:27:26.608Z,7.23
2023-01-13T16:29:54.795Z,9.10
2023-01-13T16:32:22.865Z,7.70
2023-01-13T16:34:55.284Z,6.37
2023-01-13T16:37:25.632Z,13.03
2023-01-13T16:39:58.572Z,4.23
2023-01-13T16:42:26.740Z,6.37
2023-01-13T16:45:00.776Z,4.60
2023-01-13T16:47:28.899Z,7.47
2023-01-13T16:50:01.261Z,4.47
2023-01-13T16:52:29.264Z,4.47
2023-01-13T16:55:09.052Z,7.70
2023-01-13T16:57:37.865Z,4.77
2023-01-13T17:00:12.136Z,4.57
2023-01-13T17:02:50.750Z,5.40
2023-01-13T17:05:19.039Z,5.47
2023-01-13T17:07:49.768Z,4.30
2023-01-13T17:10:21.398Z,5.50
2023-01-13T17:12:52.270Z,7.33
2023-01-13T17:15:20.742Z,5.10
2023-01-13T17:17:55.657Z,9.20
2023-01-13T17:20:23.922Z,4.93
2023-01-13T17:22:58.657Z,4.70
2023-01-13T17:25:28.202Z,5.97
2023-01-13T17:27:57.049Z,5.30
2023-01-13T17:30:25.091Z,9.03
2023-01-13T17:32:54.319Z,7.93
2023-01-13T17:35:25.065Z,12.37
2023-01-13T17:37:53.424Z,6.40
2023-01-13T17:40:23.673Z,5.10
2023-01-13T17:43:04.721Z,1.50
2023-01-13T17:45:34.795Z,1.10
2023-01-13T17:48:09.127Z,5.23
2023-01-13T17:50:37.162Z,1.03
2023-01-13T17:53:12.717Z,2.47
2023-01-13T17:55:40.693Z,2.20
2023-01-13T17:58:18.641Z,2.37
2023-01-13T18:00:52.577Z,2.43
2023-01-13T18:03:20.705Z,1.90
2023-01-13T18:05:54.765Z,2.90
2023-01-13T18:08:23.658Z,4.40
2023-01-13T18:11:06.770Z,10.03
2023-01-13T18:13:41.199Z,2.13
2023-01-13T18:16:21.531Z,3.87
2023-01-13T18:19:19.668Z,5.10
2023-01-13T18:22:05.770Z,5.50
2023-01-13T18:24:52.105Z,6.37
2023-01-13T18:27:23.844Z,2.83
2023-01-13T18:29:55.084Z,5.00
2023-01-13T18:32:29.846Z,4.17
2023-01-13T18:35:14.164Z,6.17
2023-01-13T18:37:48.213Z,3.57
2023-01-13T18:40:16.586Z,2.47
2023-01-13T18:42:51.511Z,2.70
2023-01-13T18:45:22.130Z,4.37
2023-01-13T18:47:50.243Z,5.23
2023-01-13T18:50:18.816Z,6.17
2023-01-13T18:52:49.069Z,9.80
2023-01-13T18:55:17.212Z,7.13
2023-01-13T18:57:45.281Z,5.20
2023-01-13T19:00:19.049Z,3.57
2023-01-13T19:02:50.646Z,4.03
2023-01-13T19:05:21.795Z,3.57
2023-01-13T19:07:59.340Z,2.73
2023-01-13T19:10:42.218Z,4.47
2023-01-13T19:13:10.219Z,8.33
2023-01-13T19:15:47.421Z,4.10
2023-01-13T19:18:22.406Z,8.03
2023-01-13T19:20:50.662Z,9.23
2023-01-13T19:23:26.939Z,4.83
2023-01-13T19:26:03.790Z,4.37
2023-01-13T19:28:32.293Z,4.60
2023-01-13T19:31:08.857Z,6.10
2023-01-13T19:33:40.332Z,8.03
2023-01-13T19:36:12.124Z,4.97
2023-01-13T19:38:40.174Z,4.13
2023-01-13T19:41:34.854Z,5.23
2023-01-13T19:44:20.224Z,8.23
2023-01-13T19:46:52.816Z,7.37
2023-01-13T19:49:22.240Z,6.93
2023-01-13T19:51:57.912Z,13.67
2023-01-13T19:54:26.135Z,9.60
2023-01-13T19:57:00.237Z,12.50
2023-01-13T19:59:29.983Z,6.07
2023-01-13T20:02:00.714Z,10.70
2023-01-13T20:04:45.088Z,9.47
2023-01-13T20:07:24.960Z,7.73
2023-01-13T20:09:53.350Z,5.93
2023-01-13T20:12:29.164Z,5.23
2023-01-13T20:14:57.418Z,6.87
2023-01-13T20:17:28.223Z,4.30
2023-01-13T20:19:58.976Z,8.40
2023-01-13T20:22:28.945Z,9.73
2023-01-13T20:24:56.962Z,6.73
2023-01-13T20:27:25.498Z,5.33
2023-01-13T20:29:53.493Z,7.57
2023-01-13T20:32:21.527Z,5.63
2023-01-13T20:34:55.573Z,4.83
2023-01-13T20:37:25.049Z,7.77
2023-01-13T20:39:55.175Z,7.20
2023-01-13T20:42:36.300Z,6.07
2023-01-13T20:45:04.465Z,8.87
2023-01-13T20:47:37.141Z,6.27
2023-01-13T20:50:05.673Z,5.20
2023-01-13T20:56:46.612Z,3.30
2023-01-13T20:59:14.991Z,8.87
2023-01-13T21:01:43.441Z,4.03
2023-01-13T21:04:11.735Z,7.87
2023-01-13T21:06:44.138Z,6.03
2023-01-13T21:09:12.194Z,6.77
2023-01-13T21:11:59.062Z,6.90
2023-01-13T21:14:45.309Z,8.17
2023-01-13T21:17:38.699Z,9.60
2023-01-13T21:20:10.491Z,8.67
2023-01-13T21:22:39.282Z,7.73
2023-01-13T21:25:14.775Z,5.13
2023-01-13T21:27:44.470Z,6.60
2023-01-13T21:30:17.784Z,11.10
2023-01-13T21:32:46.403Z,6.33
2023-01-13T21:35:21.183Z,6.40
2023-01-13T21:37:49.334Z,4.70
2023-01-13T21:40:20.240Z,9.23
2023-01-13T21:43:07.357Z,5.87
2023-01-13T21:45:52.980Z,4.43
2023-01-13T21:48:21.151Z,5.33
2023-01-13T21:50:49.128Z,7.17
2023-01-13T21:53:17.159Z,3.67
2023-01-13T21:55:50.953Z,5.53
2023-01-13T21:58:27.819Z,3.83
2023-01-13T22:00:56.110Z,3.90
2023-01-13T22:03:30.036Z,7.93
2023-01-13T22:05:58.454Z,5.23
2023-01-13T22:08:32.676Z,4.57
2023-01-13T22:11:03.627Z,3.90
2023-01-13T22:13:52.242Z,7.33
2023-01-13T22:16:20.516Z,4.37
2023-01-13T22:18:48.600Z,4.00
2023-01-13T22:21:20.014Z,6.23
2023-01-13T22:23:48.244Z,5.07
2023-01-13T22:26:17.614Z,6.00
2023-01-13T22:28:47.241Z,4.87
2023-01-13T22:31:23.814Z,2.37
2023-01-13T22:33:59.499Z,5.33
2023-01-13T22:36:27.787Z,2.97
2023-01-13T22:39:04.130Z,5.70
2023-01-13T22:41:32.597Z,6.63
2023-01-13T22:44:09.518Z,4.27
2023-01-13T22:46:37.732Z,3.93
2023-01-13T22:49:08.911Z,9.73
2023-01-13T22:51:36.947Z,2.37
2023-01-13T22:54:11.880Z,2.80
2023-01-13T22:56:40.025Z,3.60
2023-01-13T22:59:17.103Z,2.63
2023-01-13T23:01:55.925Z,6.00
2023-01-13T23:04:24.173Z,4.53
2023-01-13T23:06:54.642Z,2.20
2023-01-13T23:09:22.796Z,3.20
2023-01-13T23:11:58.740Z,3.80
2023-01-13T23:14:28.154Z,3.30
2023-01-13T23:16:57.544Z,8.50
2023-01-13T23:19:26.209Z,4.10
2023-01-13T23:21:54.259Z,2.57
2023-01-13T23:24:26.014Z,2.60
2023-01-13T23:26:54.082Z,3.90
2023-01-13T23:29:22.049Z,3.57
2023-01-13T23:31:51.440Z,3.77
2023-01-13T23:34:19.573Z,1.93
2023-01-13T23:36:47.562Z,1.20
2023-01-13T23:39:15.591Z,2.97
2023-01-13T23:41:51.088Z,3.27
2023-01-13T23:44:19.045Z,4.63
2023-01-13T23:46:51.470Z,7.17
2023-01-13T23:49:19.570Z,3.50
2023-01-13T23:51:52.691Z,2.73
2023-01-13T23:54:21.167Z,3.77
2023-01-13T23:56:53.473Z,3.03
2023-01-13T23:59:21.865Z,2.73
